createdAt,value
2022-09-05T00:01:30.128Z,36.44
2022-09-05T00:04:25.107Z,36.41
2022-09-05T00:07:01.896Z,36.47
2022-09-05T00:09:52.733Z,36.12
2022-09-05T00:12:21.029Z,36.30
2022-09-05T00:15:17.834Z,36.40
2022-09-05T00:19:28.444Z,36.44
2022-09-05T00:24:20.904Z,36.67
2022-09-05T00:24:36.508Z,36.61
2022-09-05T00:26:54.169Z,36.31
2022-09-05T00:30:52.320Z,36.29
2022-09-05T00:32:36.340Z,36.41
2022-09-05T00:35:25.920Z,36.23
2022-09-05T00:37:56.096Z,36.67
2022-09-05T00:40:31.233Z,36.68
2022-09-05T00:43:03.257Z,36.42
2022-09-05T00:45:38.737Z,36.42
2022-09-05T00:48:19.587Z,36.57
2022-09-05T00:51:10.212Z,36.37
2022-09-05T00:53:45.661Z,36.45
2022-09-05T00:56:31.735Z,36.42
2022-09-05T00:59:27.956Z,36.51
2022-09-05T01:02:05.223Z,36.74
2022-09-05T01:04:43.958Z,36.60
2022-09-05T01:07:25.718Z,36.51
2022-09-05T01:10:05.321Z,36.59
2022-09-05T01:12:52.670Z,36.71
2022-09-05T01:15:32.775Z,36.28
2022-09-05T01:18:28.697Z,36.29
2022-09-05T01:21:22.866Z,36.54
2022-09-05T01:24:27.804Z,36.61
2022-09-05T01:29:13.189Z,36.43
2022-09-05T01:30:37.068Z,36.61
2022-09-05T01:33:17.962Z,36.32
2022-09-05T01:36:07.747Z,36.23
2022-09-05T01:39:09.656Z,36.71
2022-09-05T01:41:39.395Z,36.40
2022-09-05T01:44:37.857Z,36.14
2022-09-05T01:47:29.298Z,36.33
2022-09-05T01:50:08.192Z,36.61
2022-09-05T01:53:04.866Z,36.12
2022-09-05T01:56:05.196Z,36.25
2022-09-05T01:58:57.526Z,36.23
2022-09-05T02:01:34.824Z,36.08
2022-09-05T02:04:31.125Z,36.16
2022-09-05T02:07:15.277Z,36.32
2022-09-05T02:10:37.717Z,36.15
2022-09-05T02:13:20.732Z,36.13
2022-09-05T02:15:59.692Z,35.93
2022-09-05T02:18:44.483Z,36.09
2022-09-05T02:21:25.508Z,36.10
2022-09-05T02:24:04.189Z,36.14
2022-09-05T02:26:37.461Z,35.83
2022-09-05T02:29:28.976Z,35.69
2022-09-05T02:32:02.184Z,36.07
2022-09-05T02:34:40.550Z,35.83
2022-09-05T02:37:22.818Z,36.15
2022-09-05T02:45:02.723Z,35.79
2022-09-05T02:45:11.155Z,35.75
2022-09-05T02:46:05.073Z,36.05
2022-09-05T02:48:47.269Z,36.03
2022-09-05T02:57:28.482Z,35.87
2022-09-05T02:57:40.616Z,35.58
2022-09-05T02:57:42.127Z,35.70
2022-09-05T03:00:13.265Z,35.61
2022-09-05T03:03:06.055Z,35.58
2022-09-05T03:05:39.180Z,35.82
2022-09-05T03:08:20.135Z,35.38
2022-09-05T03:11:05.144Z,35.43
2022-09-05T03:14:01.722Z,35.83
2022-09-05T03:17:01.251Z,35.26
2022-09-05T03:20:04.299Z,35.66
2022-09-05T03:23:05.721Z,35.42
2022-09-05T03:26:24.442Z,35.39
2022-09-05T03:29:16.680Z,35.50
2022-09-05T03:32:10.563Z,35.60
2022-09-05T03:35:08.741Z,35.42
2022-09-05T03:38:18.126Z,35.32
2022-09-05T03:41:00.173Z,35.42
2022-09-05T03:43:57.950Z,35.05
2022-09-05T03:46:38.699Z,35.32
2022-09-05T03:53:17.995Z,34.96
2022-09-05T03:57:06.640Z,34.99
2022-09-05T03:57:23.882Z,35.31
2022-09-05T03:58:57.142Z,35.09
2022-09-05T04:03:17.906Z,35.00
2022-09-05T04:08:13.584Z,35.28
2022-09-05T04:08:18.262Z,35.39
2022-09-05T04:10:27.338Z,35.20
2022-09-05T04:13:02.693Z,35.28
2022-09-05T04:15:39.706Z,35.24
2022-09-05T04:18:32.737Z,34.70
2022-09-05T04:21:07.750Z,34.99
2022-09-05T04:23:47.587Z,34.87
2022-09-05T04:26:30.220Z,34.70
2022-09-05T04:29:15.120Z,34.69
2022-09-05T04:32:18.204Z,34.99
2022-09-05T04:34:57.212Z,35.13
2022-09-05T04:37:48.475Z,34.67
2022-09-05T04:40:40.760Z,35.00
2022-09-05T04:43:14.316Z,34.65
2022-09-05T04:45:47.171Z,34.89
2022-09-05T04:48:22.314Z,35.00
2022-09-05T04:51:05.125Z,34.68
2022-09-05T04:54:20.143Z,35.11
2022-09-05T04:56:56.358Z,34.79
2022-09-05T05:03:56.517Z,34.93
2022-09-05T05:05:59.627Z,34.86
2022-09-05T05:06:14.277Z,34.72
2022-09-05T05:08:29.123Z,34.75
2022-09-05T05:17:54.206Z,35.00
2022-09-05T05:17:57.091Z,34.88
2022-09-05T05:18:12.507Z,35.20
2022-09-05T05:20:40.445Z,34.94
2022-09-05T05:22:55.972Z,34.81
2022-09-05T05:25:24.191Z,35.31
2022-09-05T05:28:10.265Z,35.34
2022-09-05T05:30:51.057Z,35.04
2022-09-05T05:33:29.508Z,35.32
2022-09-05T05:36:01.485Z,35.49
2022-09-05T05:38:39.757Z,35.53
2022-09-05T05:41:18.560Z,35.22
2022-09-05T05:43:48.431Z,35.24
2022-09-05T05:46:28.870Z,35.59
2022-09-05T05:49:09.585Z,35.38
2022-09-05T05:52:02.116Z,35.47
2022-09-05T05:54:40.664Z,35.89
2022-09-05T05:57:55.070Z,35.48
2022-09-05T06:00:32.565Z,35.74
2022-09-05T06:03:46.340Z,35.49
2022-09-05T06:06:42.888Z,35.77
2022-09-05T06:14:52.371Z,35.75
2022-09-05T06:14:55.256Z,35.62
2022-09-05T06:17:01.933Z,35.86
2022-09-05T06:22:07.380Z,35.96
2022-09-05T06:23:48.055Z,35.50
2022-09-05T06:26:49.375Z,35.72
2022-09-05T06:29:37.967Z,35.85
2022-09-05T06:32:27.637Z,35.63
2022-09-05T06:35:24.029Z,35.60
2022-09-05T06:38:07.788Z,35.64
2022-09-05T06:40:42.436Z,36.07
2022-09-05T06:43:28.333Z,35.66
2022-09-05T06:46:32.222Z,35.94
2022-09-05T06:49:32.366Z,36.15
2022-09-05T06:52:36.342Z,36.20
2022-09-05T06:55:28.493Z,35.74
2022-09-05T06:58:42.508Z,35.84
2022-09-05T07:01:12.242Z,35.80
2022-09-05T07:03:59.716Z,36.28
2022-09-05T07:07:06.438Z,36.21
2022-09-05T07:09:52.060Z,35.98
2022-09-05T07:12:27.843Z,35.82
2022-09-05T07:15:10.625Z,36.22
2022-09-05T07:18:09.653Z,35.88
2022-09-05T07:21:16.016Z,36.33
2022-09-05T07:24:06.278Z,36.22
2022-09-05T07:26:54.184Z,36.28
2022-09-05T07:29:32.223Z,35.76
2022-09-05T07:32:05.744Z,35.61
2022-09-05T07:34:35.547Z,35.87
2022-09-05T07:37:14.999Z,35.64
2022-09-05T07:39:50.894Z,35.50
2022-09-05T07:42:24.286Z,35.62
2022-09-05T07:44:56.698Z,35.54
2022-09-05T07:47:30.308Z,35.47
2022-09-05T07:52:39.380Z,35.19
2022-09-05T07:56:51.385Z,35.29
2022-09-05T07:56:51.933Z,35.05
2022-09-05T07:58:41.813Z,35.03
2022-09-05T08:01:12.666Z,35.15
2022-09-05T08:03:43.991Z,35.13
2022-09-05T08:06:50.754Z,34.98
2022-09-05T08:10:05.390Z,34.93
2022-09-05T08:12:09.898Z,34.73
2022-09-05T08:14:46.124Z,34.78
2022-09-05T08:17:18.868Z,34.61
2022-09-05T08:20:10.552Z,34.40
2022-09-05T08:22:52.336Z,34.36
2022-09-05T08:25:27.568Z,34.29
2022-09-05T08:28:20.810Z,34.11
2022-09-05T08:30:58.129Z,34.24
2022-09-05T08:33:33.166Z,34.42
2022-09-05T08:36:09.189Z,34.20
2022-09-05T08:38:41.225Z,34.14
2022-09-05T08:41:18.365Z,33.99
2022-09-05T08:46:43.401Z,33.78
2022-09-05T08:46:54.458Z,33.88
2022-09-05T08:49:54.339Z,33.66
2022-09-05T08:52:34.270Z,33.61
2022-09-05T08:55:14.750Z,33.37
2022-09-05T08:58:02.552Z,33.32
2022-09-05T09:00:36.159Z,33.61
2022-09-05T09:03:15.366Z,33.27
2022-09-05T09:06:15.999Z,33.40
2022-09-05T09:09:10.357Z,33.05
2022-09-05T09:11:44.120Z,32.97
2022-09-05T09:14:38.260Z,32.85
2022-09-05T09:17:24.420Z,33.00
2022-09-05T09:20:09.907Z,32.99
2022-09-05T09:22:43.036Z,32.72
2022-09-05T09:25:16.776Z,32.84
2022-09-05T09:28:47.351Z,32.44
2022-09-05T09:31:00.490Z,32.52
2022-09-05T09:33:39.566Z,32.75
2022-09-05T09:36:23.104Z,32.71
2022-09-05T09:39:14.451Z,32.72
2022-09-05T09:42:32.557Z,33.09
2022-09-05T09:45:33.336Z,33.15
2022-09-05T09:48:27.377Z,33.08
2022-09-05T09:51:12.281Z,32.98
2022-09-05T09:54:01.112Z,32.91
2022-09-05T09:57:02.554Z,32.81
2022-09-05T09:59:54.403Z,32.62
2022-09-05T10:06:57.732Z,32.37
2022-09-05T10:10:37.915Z,32.13
2022-09-05T10:10:50.600Z,31.94
2022-09-05T10:11:54.150Z,31.70
2022-09-05T10:15:01.921Z,31.53
2022-09-05T10:18:15.211Z,31.26
2022-09-05T10:21:16.225Z,31.36
2022-09-05T10:24:26.828Z,31.12
2022-09-05T10:27:20.810Z,31.05
2022-09-05T10:30:06.588Z,31.05
2022-09-05T10:35:17.609Z,30.86
2022-09-05T10:35:37.255Z,30.89
2022-09-05T10:38:12.736Z,30.74
2022-09-05T10:41:20.127Z,30.69
2022-09-05T10:43:36.252Z,30.79
2022-09-05T10:46:46.627Z,30.59
2022-09-05T10:49:11.925Z,30.56
2022-09-05T10:51:52.042Z,30.41
2022-09-05T10:54:32.290Z,30.40
2022-09-05T10:57:13.375Z,30.28
2022-09-05T11:02:24.156Z,30.54
2022-09-05T11:02:53.953Z,30.30
2022-09-05T11:05:28.895Z,30.16
2022-09-05T11:08:06.860Z,29.95
2022-09-05T11:10:38.822Z,29.91
2022-09-05T11:13:20.034Z,29.55
2022-09-05T11:16:04.012Z,29.77
2022-09-05T11:18:56.191Z,29.88
2022-09-05T11:21:30.597Z,29.99
2022-09-05T11:24:08.516Z,30.17
2022-09-05T11:26:43.240Z,29.72
2022-09-05T11:29:18.254Z,29.93
2022-09-05T11:32:42.109Z,29.41
2022-09-05T11:39:50.314Z,29.35
2022-09-05T11:40:09.704Z,29.28
2022-09-05T11:41:57.375Z,29.04
2022-09-05T11:44:35.858Z,29.09
2022-09-05T11:47:44.591Z,29.30
2022-09-05T11:50:44.720Z,29.54
2022-09-05T11:53:57.406Z,29.52
2022-09-05T11:57:11.426Z,29.32
2022-09-05T12:00:33.143Z,29.35
2022-09-05T12:04:09.948Z,29.57
2022-09-05T12:07:16.020Z,29.23
2022-09-05T12:10:03.361Z,29.27
2022-09-05T12:12:41.072Z,28.99
2022-09-05T12:15:27.098Z,28.81
2022-09-05T12:18:19.598Z,28.88
2022-09-05T12:21:04.599Z,28.88
2022-09-05T12:24:36.806Z,28.73
2022-09-05T12:27:39.154Z,28.64
2022-09-05T12:29:45.543Z,28.45
2022-09-05T12:33:32.676Z,28.44
2022-09-05T12:36:06.600Z,28.45
2022-09-05T12:40:56.524Z,28.52
2022-09-05T12:41:44.673Z,28.49
2022-09-05T12:44:41.824Z,28.42
2022-09-05T12:47:18.536Z,28.37
2022-09-05T12:50:03.412Z,28.43
2022-09-05T12:52:46.589Z,28.37
2022-09-05T12:55:26.158Z,28.22
2022-09-05T13:02:55.479Z,28.15
2022-09-05T13:03:02.513Z,28.21
2022-09-05T13:04:15.934Z,28.01
2022-09-05T13:06:40.938Z,28.07
2022-09-05T13:09:16.877Z,27.82
2022-09-05T13:14:47.371Z,28.11
2022-09-05T13:15:11.523Z,28.10
2022-09-05T13:17:51.402Z,28.36
2022-09-05T13:20:34.250Z,28.40
2022-09-05T13:23:11.393Z,28.66
2022-09-05T13:25:43.382Z,28.71
2022-09-05T13:28:15.653Z,28.75
2022-09-05T13:34:04.478Z,28.73
2022-09-05T13:38:03.244Z,28.65
2022-09-05T13:38:15.037Z,28.73
2022-09-05T13:39:29.272Z,28.79
2022-09-05T13:42:03.433Z,28.59
2022-09-05T13:44:38.160Z,28.76
2022-09-05T13:47:16.379Z,28.80
2022-09-05T13:50:17.403Z,28.64
2022-09-05T13:52:49.824Z,28.67
2022-09-05T13:55:23.864Z,28.62
2022-09-05T13:57:57.514Z,28.50
2022-09-05T14:01:14.235Z,28.42
2022-09-05T14:05:05.168Z,28.71
2022-09-05T14:07:50.300Z,29.12
2022-09-05T14:10:45.848Z,30.37
2022-09-05T14:13:19.302Z,31.38
2022-09-05T14:15:53.858Z,31.41
2022-09-05T14:18:24.798Z,31.20
2022-09-05T14:21:15.238Z,31.08
2022-09-05T14:23:53.642Z,30.86
2022-09-05T14:26:29.598Z,30.62
2022-09-05T14:29:15.105Z,30.04
2022-09-05T14:37:37.523Z,30.36
2022-09-05T14:37:48.384Z,30.99
2022-09-05T14:38:09.434Z,31.32
2022-09-05T14:41:26.724Z,31.21
2022-09-05T14:44:19.824Z,30.99
2022-09-05T14:47:08.401Z,30.63
2022-09-05T14:50:07.245Z,30.32
2022-09-05T14:52:43.782Z,30.16
2022-09-05T15:02:42.473Z,29.63
2022-09-05T15:02:45.188Z,29.81
2022-09-05T15:06:37.945Z,29.47
2022-09-05T15:12:16.708Z,29.23
2022-09-05T15:12:23.889Z,29.33
2022-09-05T15:15:01.449Z,29.34
2022-09-05T15:17:30.625Z,29.45
2022-09-05T15:20:06.187Z,29.28
2022-09-05T15:22:37.322Z,29.22
2022-09-05T15:25:17.190Z,29.13
2022-09-05T15:27:49.504Z,29.13
2022-09-05T15:30:20.510Z,29.04
2022-09-05T15:32:50.835Z,29.10
2022-09-05T15:35:35.202Z,29.08
2022-09-05T15:38:21.769Z,29.18
2022-09-05T15:41:07.672Z,28.90
2022-09-05T15:43:40.151Z,28.68
2022-09-05T15:46:08.682Z,28.90
2022-09-05T15:48:40.900Z,28.86
2022-09-05T15:51:30.984Z,28.74
2022-09-05T15:54:02.309Z,29.03
2022-09-05T15:56:30.375Z,28.96
2022-09-05T15:59:03.018Z,28.97
2022-09-05T16:01:58.153Z,29.03
2022-09-05T16:10:30.877Z,29.08
2022-09-05T16:10:33.562Z,29.39
2022-09-05T16:10:39.106Z,29.10
2022-09-05T16:12:59.749Z,29.22
2022-09-05T16:19:36.253Z,29.23
2022-09-05T16:23:17.780Z,29.42
2022-09-05T16:23:32.023Z,29.61
2022-09-05T16:24:14.425Z,29.69
2022-09-05T16:26:47.966Z,29.56
2022-09-05T16:29:26.056Z,29.68
2022-09-05T16:32:11.805Z,29.58
2022-09-05T16:34:47.704Z,29.71
2022-09-05T16:37:19.982Z,29.67
2022-09-05T16:39:52.037Z,29.73
2022-09-05T16:42:45.715Z,29.64
2022-09-05T16:45:26.147Z,29.94
2022-09-05T16:48:09.125Z,29.45
2022-09-05T16:50:48.170Z,29.61
2022-09-05T16:53:31.021Z,29.65
2022-09-05T16:56:05.238Z,29.75
2022-09-05T16:58:38.756Z,30.02
2022-09-05T17:01:20.186Z,29.89
2022-09-05T17:03:55.734Z,29.93
2022-09-05T17:06:28.037Z,30.11
2022-09-05T17:09:12.870Z,30.01
2022-09-05T17:11:51.047Z,30.20
2022-09-05T17:14:34.929Z,30.37
2022-09-05T17:18:06.000Z,30.40
2022-09-05T17:20:07.142Z,30.73
2022-09-05T17:27:57.019Z,31.01
2022-09-05T17:29:24.033Z,31.28
2022-09-05T17:29:28.326Z,31.29
2022-09-05T17:31:53.454Z,31.49
2022-09-05T17:34:54.417Z,31.39
2022-09-05T17:37:46.476Z,31.51
2022-09-05T17:40:57.277Z,31.54
2022-09-05T17:43:29.164Z,31.74
2022-09-05T17:46:13.699Z,31.87
2022-09-05T17:49:18.469Z,31.98
2022-09-05T17:52:28.298Z,31.94
2022-09-05T17:54:57.983Z,31.93
2022-09-05T17:57:40.167Z,32.19
2022-09-05T18:00:48.656Z,32.04
2022-09-05T18:04:16.880Z,32.26
2022-09-05T18:06:59.072Z,32.30
2022-09-05T18:09:59.021Z,32.06
2022-09-05T18:16:13.135Z,32.04
2022-09-05T18:19:29.054Z,32.09
2022-09-05T18:21:54.274Z,31.97
2022-09-05T18:27:39.376Z,32.39
2022-09-05T18:30:30.085Z,32.49
2022-09-05T18:33:55.029Z,32.66
2022-09-05T18:36:40.753Z,32.69
2022-09-05T18:39:50.209Z,32.63
2022-09-05T18:42:33.583Z,33.05
2022-09-05T18:45:14.668Z,33.15
2022-09-05T18:47:53.038Z,33.26
2022-09-05T18:50:32.542Z,33.33
2022-09-05T18:53:09.518Z,33.52
2022-09-05T18:56:13.087Z,33.47
2022-09-05T18:58:35.245Z,33.72
2022-09-05T19:01:27.653Z,33.69
2022-09-05T19:04:03.957Z,33.87
2022-09-05T19:06:37.934Z,33.94
2022-09-05T19:09:09.937Z,33.93
2022-09-05T19:11:53.150Z,34.11
2022-09-05T19:14:34.926Z,33.97
2022-09-05T19:17:08.819Z,34.30
2022-09-05T19:20:32.486Z,34.32
2022-09-05T19:23:10.471Z,34.25
2022-09-05T19:25:46.385Z,34.32
2022-09-05T19:33:50.494Z,34.53
2022-09-05T19:37:08.702Z,34.48
2022-09-05T19:37:10.874Z,34.71
2022-09-05T19:37:29.223Z,34.59
2022-09-05T19:42:49.515Z,34.64
2022-09-05T19:47:29.128Z,34.51
2022-09-05T19:47:36.823Z,34.68
2022-09-05T19:48:26.981Z,34.97
2022-09-05T19:50:56.619Z,34.89
2022-09-05T19:53:28.106Z,35.01
2022-09-05T19:55:57.033Z,34.97
2022-09-05T19:58:27.796Z,34.90
2022-09-05T20:01:05.810Z,35.23
2022-09-05T20:03:39.270Z,35.08
2022-09-05T20:06:26.793Z,35.26
2022-09-05T20:09:10.978Z,35.33
2022-09-05T20:11:45.556Z,35.18
2022-09-05T20:14:22.214Z,35.03
2022-09-05T20:16:51.509Z,35.30
2022-09-05T20:19:29.547Z,35.17
2022-09-05T20:22:12.745Z,35.20
2022-09-05T20:24:51.251Z,35.30
2022-09-05T20:27:27.153Z,35.70
2022-09-05T20:29:58.212Z,35.32
2022-09-05T20:32:39.866Z,35.48
2022-09-05T20:37:51.685Z,35.56
2022-09-05T20:43:10.163Z,35.67
2022-09-05T20:43:24.000Z,35.39
2022-09-05T20:43:58.147Z,35.24
2022-09-05T20:50:45.636Z,35.67
2022-09-05T20:54:14.020Z,35.58
2022-09-05T20:54:23.202Z,35.52
2022-09-05T20:55:37.990Z,35.46
2022-09-05T20:57:51.072Z,35.51
2022-09-05T21:00:23.012Z,35.53
2022-09-05T21:02:54.671Z,35.45
2022-09-05T21:05:30.190Z,35.48
2022-09-05T21:08:25.986Z,35.41
2022-09-05T21:10:56.545Z,35.45
2022-09-05T21:13:28.214Z,35.67
2022-09-05T21:15:57.199Z,35.27
2022-09-05T21:18:33.232Z,35.47
2022-09-05T21:21:14.587Z,35.39
2022-09-05T21:24:16.291Z,35.52
2022-09-05T21:26:50.523Z,35.58
2022-09-05T21:29:27.552Z,35.57
2022-09-05T21:32:02.380Z,35.63
2022-09-05T21:34:38.419Z,35.55
2022-09-05T21:37:15.288Z,35.50
2022-09-05T21:39:59.244Z,35.67
2022-09-05T21:45:18.106Z,35.50
2022-09-05T21:47:49.220Z,35.50
2022-09-05T21:48:15.260Z,35.46
2022-09-05T21:50:46.861Z,35.72
2022-09-05T21:56:46.662Z,35.70
2022-09-05T21:59:18.250Z,35.54
2022-09-05T21:59:28.694Z,35.50
2022-09-05T22:01:58.826Z,35.44
2022-09-05T22:04:27.050Z,35.59
2022-09-05T22:06:57.628Z,35.56
2022-09-05T22:09:25.670Z,35.30
2022-09-05T22:11:53.817Z,35.35
2022-09-05T22:14:24.364Z,35.24
2022-09-05T22:16:56.278Z,35.51
2022-09-05T22:19:37.347Z,35.45
2022-09-05T22:22:17.643Z,35.50
2022-09-05T22:24:53.309Z,35.39
2022-09-05T22:27:23.875Z,35.39
2022-09-05T22:29:52.426Z,35.56
2022-09-05T22:32:30.957Z,35.24
2022-09-05T22:35:26.931Z,35.15
2022-09-05T22:38:07.050Z,35.40
2022-09-05T22:40:37.968Z,35.10
2022-09-05T22:43:07.591Z,35.28
2022-09-05T22:45:38.247Z,35.43
2022-09-05T22:48:11.719Z,35.20
2022-09-05T22:50:42.289Z,35.25
2022-09-05T22:53:11.042Z,35.34
2022-09-05T22:55:41.388Z,35.13
2022-09-05T22:58:11.760Z,35.36
2022-09-05T23:00:41.339Z,35.22
2022-09-05T23:03:09.387Z,35.25
2022-09-05T23:05:37.400Z,35.28
2022-09-05T23:08:07.420Z,35.39
2022-09-05T23:10:36.520Z,35.12
2022-09-05T23:13:05.850Z,35.44
2022-09-05T23:15:34.030Z,35.27
2022-09-05T23:18:02.877Z,35.38
2022-09-05T23:20:33.109Z,35.27
2022-09-05T23:23:04.600Z,35.13
2022-09-05T23:25:34.401Z,34.92
2022-09-05T23:28:06.278Z,35.32
2022-09-05T23:30:34.312Z,34.98
2022-09-05T23:33:02.285Z,35.05
2022-09-05T23:35:30.299Z,35.04
2022-09-05T23:37:58.276Z,35.29
2022-09-05T23:40:26.954Z,34.88
2022-09-05T23:42:58.108Z,35.09
2022-09-05T23:45:27.128Z,34.81
2022-09-05T23:47:55.695Z,34.92
2022-09-05T23:50:23.744Z,34.84
2022-09-05T23:52:51.776Z,34.81
2022-09-05T23:55:22.474Z,34.87
2022-09-05T23:57:50.600Z,35.22
